Moscow, Arkansas
Current Conditions -  °F | °C
As of 12:53 PM on Monday 20 Oct 2014 (Local Time) from KPBF Reporting Station
Scattered Clouds Scattered Clouds  
Wind Chill: 69°   Ceiling: Unl
Heat Index: 69°   Visibility: 10mi
Dew Point: 51°   Wind: 8mph
Humidity: 53%   Direction: 220°SW
Pressure: 30.08"   Gusts: NA
Location:  34.15°N, 91.8°W
Report Text: KPBF 201753Z AUTO 22007KT 10SM SCT110 21/11 A3008 RMK AO2 SLP186 T02060106 10211 20072 58014
Loading
Personal Weather Stations






























Interactive Weather Map
Tropical Storm Tracking
New forecast layout! Learn more

10-Day Weather Forecast

Advertisements
Track Severe Weather on mobile